Accokeek, Maryland
Current Conditions -  °F | °C
As of 9:58 AM on Tuesday 21 Oct 2014 (Local Time) from KDAA Reporting Station
Clear Clear  
Wind Chill: 58°   Ceiling: Unl
Heat Index: 58°   Visibility: 10mi
Dew Point: 51°   Wind: 1mph
Humidity: 77%   Direction: NA
Pressure: 29.9"   Gusts: NA
Location:  38.67°N, 77.03°W
Report Text: KDAA 211358Z AUTO VRB01KT 10SM CLR 14/11 A2990 RMK AO2 SLP128 T01440105
Loading
Personal Weather Stations






























Interactive Weather Map New forecast layout! Learn more

10-Day Weather Forecast

Advertisements
Track Severe Weather on mobile